Airfield :
LOGIN :

Register | Disclaimer

   EN    FR    IT 

 










Legend :    VFR   Marginal VFR   IFR   Intensive IFR   Very Intensive IFR
Visi :
Ceiling :
>= 8 km
>= 3000ft
5 to 8 km
1000 to 3000 ft
1500m to 5 km
500 to 1000 ft
800 to 1500m
200 to 500 ft
< 800m
< 200 ft
Symbols :   Thunderstorms  Fog  Heavy snow  Heavy precipitations  Wind > 20 kt
SIGMETs :     Misc.  Thunderstorms  Icing  Turbulence  Mountain Waves  Volcanic Ashes






- Airport Elevation : 17 ft
- IATA code : GRQ


EHGG - Groningen Eelde

CURRENT METAR :
  • 190855Z AUTO 24013KT 210V280 9999 SCT015 BKN027 BKN031 21/17 Q1013 NOSIG

EXPIRED METARs :
  • 190825Z AUTO 23011KT 200V260 9999 FEW014 OVC017 20/17 Q1013 NOSIG
  • 190755Z AUTO 24011KT 210V270 9999 BKN013 OVC015 19/17 Q1013 TEMPO BKN016
  • 190725Z AUTO 24014KT 9999 SCT014 BKN016 BKN028 21/18 Q1013 TEMPO BKN016
  • 190655Z AUTO 24010KT 200V270 9999 SCT011 BKN013 BKN016 20/18 Q1013 TEMPO BKN016
  • 190625Z AUTO 24010KT 210V280 9999 FEW011 BKN016 OVC019 20/18 Q1012 TEMPO BKN016

TAF TAF EHGG
Valid from the 19 at 06:00 until the 20 at 12:00 UTC


190517Z 1906/2012 20010KT 9999 BKN018
BECMG 1906/1909 23015KT
PROB40
TEMPO 1906/1909 6000 SCT008 BKN012
BECMG 1914/1916 33006KT
BECMG 2000/2003 06012KT
TEMPO 2002/2008 4000 SHRA TSRA BKN050CB
PROB40
TEMPO 2002/2006 18018G30KT 2000 TSRAGR BKN040CB
PROB30 2005/2009 6000 BKN012
BECMG 2009/2012 25012KT



MET'MAP, your aeronautical weather chart ! - Copyright ORBIFLY December 2007 - Disclaimer

ORBIFLY MET'MAP TEAM :

Programming & Development : Alexandra Zaïnal
Concept & original design : Baudouin d'Aumeries
Assistance for programming : Marc-Olivier Méhu
Technical & hardware support : Manuel Goepfert

Contact : metmap@orbifly.com




SOURCES & CREDITS :

   NOAA